Time;durP1;ratioP1;P1;durP2;ratioP2;P2;SDS_P1;SDS_P2;PMS_P1;PMS_P2;Temp;Humidity;BMP_temperature;BMP_pressure;BME280_temperature;BME280_humidity;BME280_pressure;Samples;Min_cycle;Max_cycle;Signal;HPM_P1;HPM_P2
2023/07/25 00:00:28;;;;;;;4.95;2.13;;;12.10;99.90;;;;;;5011331;28;20054;-78
2023/07/25 00:02:53;;;;;;;5.72;2.85;;;12.10;99.90;;;;;;5011742;28;20057;-79
2023/07/25 00:05:19;;;;;;;4.75;2.42;;;12.10;99.90;;;;;;5011700;28;20034;-79
2023/07/25 00:07:45;;;;;;;4.93;2.30;;;12.10;99.90;;;;;;5011604;28;20060;-78
2023/07/25 00:10:11;;;;;;;6.57;2.40;;;12.10;99.90;;;;;;5012298;28;20441;-77
2023/07/25 00:12:37;;;;;;;5.50;2.08;;;12.00;99.90;;;;;;5011235;28;20041;-79
2023/07/25 00:15:04;;;;;;;4.85;2.40;;;12.00;99.90;;;;;;5012634;28;20042;-78
2023/07/25 00:17:30;;;;;;;5.00;2.80;;;12.00;99.90;;;;;;4994266;28;20502;-79
2023/07/25 00:19:56;;;;;;;3.90;1.90;;;11.90;99.90;;;;;;5012802;28;20038;-80
2023/07/25 00:22:22;;;;;;;6.60;2.80;;;12.00;99.90;;;;;;4995434;28;20375;-80
2023/07/25 00:24:48;;;;;;;5.53;2.33;;;11.90;99.90;;;;;;5011154;28;20033;-79
2023/07/25 00:27:13;;;;;;;3.63;1.83;;;11.80;99.90;;;;;;4995077;28;20125;-79
2023/07/25 00:29:39;;;;;;;6.13;2.50;;;11.80;99.90;;;;;;4995228;28;20049;-78
2023/07/25 00:32:05;;;;;;;6.05;2.58;;;11.80;99.90;;;;;;5011364;28;20524;-79
2023/07/25 00:34:31;;;;;;;9.20;2.50;;;11.80;99.90;;;;;;5011702;28;20038;-78
2023/07/25 00:36:56;;;;;;;4.18;2.10;;;11.80;99.90;;;;;;4979005;28;20378;-79
2023/07/25 00:39:22;;;;;;;6.03;2.10;;;11.70;99.90;;;;;;5011944;28;20483;-79
2023/07/25 00:41:48;;;;;;;6.63;2.90;;;11.70;99.90;;;;;;5012118;28;20030;-79
2023/07/25 00:44:14;;;;;;;4.30;2.45;;;11.70;99.90;;;;;;5012534;28;20042;-78
2023/07/25 00:46:43;;;;;;;6.30;2.65;;;11.70;99.90;;;;;;5012366;28;20046;-77
2023/07/25 00:49:09;;;;;;;4.88;2.58;;;11.60;99.90;;;;;;5011760;28;20034;-77
2023/07/25 00:51:35;;;;;;;4.78;2.20;;;11.60;99.90;;;;;;5027382;28;20056;-79
2023/07/25 00:54:02;;;;;;;5.35;2.20;;;11.60;99.90;;;;;;5010841;28;20109;-79
2023/07/25 00:56:27;;;;;;;4.30;2.30;;;11.60;99.90;;;;;;5012528;28;20038;-79
2023/07/25 00:58:56;;;;;;;6.10;2.30;;;11.60;99.90;;;;;;5012389;28;20375;-78
2023/07/25 01:01:24;;;;;;;5.50;2.60;;;11.60;99.90;;;;;;5010455;28;20364;-78
2023/07/25 01:03:52;;;;;;;6.55;2.70;;;11.50;99.90;;;;;;5016316;28;20125;-77
2023/07/25 01:06:18;;;;;;;6.03;3.10;;;11.60;99.90;;;;;;5016129;28;20547;-77
2023/07/25 01:08:49;;;;;;;7.00;2.35;;;11.60;99.90;;;;;;5014521;28;20042;-79
2023/07/25 01:11:15;;;;;;;4.13;2.28;;;11.50;99.90;;;;;;5015260;28;20050;-80
2023/07/25 01:13:40;;;;;;;3.83;2.45;;;11.50;99.90;;;;;;5016402;28;20053;-80
2023/07/25 01:16:09;;;;;;;4.28;2.70;;;11.50;99.90;;;;;;5015462;28;20038;-79
2023/07/25 01:18:36;;;;;;;8.05;2.63;;;11.40;99.90;;;;;;5016361;28;20426;-78
2023/07/25 01:21:03;;;;;;;6.57;2.50;;;11.40;99.90;;;;;;5016010;28;20120;-79
2023/07/25 01:23:30;;;;;;;3.58;2.47;;;11.40;99.90;;;;;;5014917;28;20045;-79
2023/07/25 01:25:55;;;;;;;4.32;2.40;;;11.30;99.90;;;;;;5014963;28;20103;-79
2023/07/25 01:28:22;;;;;;;4.35;2.30;;;11.30;99.90;;;;;;5014310;28;20077;-78
2023/07/25 01:30:47;;;;;;;4.13;2.47;;;11.20;99.90;;;;;;5014146;28;20042;-79
2023/07/25 01:33:13;;;;;;;4.72;2.45;;;11.20;99.90;;;;;;5011833;28;20042;-79
2023/07/25 01:35:39;;;;;;;3.97;2.40;;;11.20;99.90;;;;;;5010800;28;20038;-78
2023/07/25 01:38:04;;;;;;;4.25;2.40;;;11.20;99.90;;;;;;5016088;28;20100;-78
2023/07/25 01:40:30;;;;;;;4.75;2.53;;;11.10;99.90;;;;;;5016737;28;20045;-79
2023/07/25 01:42:55;;;;;;;4.63;2.33;;;11.10;99.90;;;;;;5016784;28;20486;-79
2023/07/25 01:45:21;;;;;;;4.28;2.20;;;11.10;99.90;;;;;;5014749;28;20038;-78
2023/07/25 01:47:47;;;;;;;4.50;2.30;;;11.10;99.90;;;;;;5014358;28;20091;-80
2023/07/25 01:50:13;;;;;;;5.78;2.30;;;11.10;99.90;;;;;;5015663;28;20074;-79
2023/07/25 01:52:38;;;;;;;5.53;2.65;;;11.10;99.90;;;;;;5014532;28;20041;-79
2023/07/25 01:55:04;;;;;;;5.65;2.55;;;11.10;99.90;;;;;;5015799;28;20041;-79
2023/07/25 01:57:30;;;;;;;4.53;2.28;;;11.00;99.90;;;;;;4997968;28;20060;-79
2023/07/25 01:59:57;;;;;;;4.95;2.75;;;11.00;99.90;;;;;;5014559;28;20409;-79
2023/07/25 02:02:23;;;;;;;6.35;2.65;;;11.00;99.90;;;;;;5015824;28;20391;-79
2023/07/25 02:04:48;;;;;;;5.10;2.20;;;11.00;99.90;;;;;;5015070;28;20042;-78
2023/07/25 02:07:14;;;;;;;4.47;2.50;;;11.00;99.90;;;;;;5014226;28;20046;-79
2023/07/25 02:09:40;;;;;;;5.40;2.47;;;10.90;99.90;;;;;;5014016;28;20148;-80
2023/07/25 02:12:07;;;;;;;5.40;2.30;;;10.90;99.90;;;;;;5030490;28;20069;-79
2023/07/25 02:14:33;;;;;;;5.07;3.00;;;10.80;99.90;;;;;;5012637;28;20340;-80
2023/07/25 02:16:59;;;;;;;4.28;2.22;;;10.80;99.90;;;;;;5013421;28;20100;-80
2023/07/25 02:19:24;;;;;;;4.40;2.38;;;10.90;99.90;;;;;;5013439;28;20030;-79
2023/07/25 02:21:50;;;;;;;6.43;2.72;;;10.90;99.90;;;;;;4997851;28;20045;-79
2023/07/25 02:24:16;;;;;;;6.15;2.70;;;10.90;99.90;;;;;;5014501;28;20042;-79
2023/07/25 02:26:41;;;;;;;5.45;2.45;;;10.90;99.90;;;;;;4998093;28;20061;-78
2023/07/25 02:29:07;;;;;;;3.95;2.47;;;10.90;99.90;;;;;;5014266;28;20048;-78
2023/07/25 02:31:33;;;;;;;4.75;2.70;;;10.90;99.90;;;;;;5014403;28;20046;-78
2023/07/25 02:33:58;;;;;;;5.00;2.70;;;10.90;99.90;;;;;;4997417;28;20037;-80
2023/07/25 02:36:24;;;;;;;8.43;2.65;;;10.90;99.90;;;;;;5014063;28;20033;-80
2023/07/25 02:38:50;;;;;;;5.53;2.67;;;10.90;99.90;;;;;;4996825;28;20455;-79
2023/07/25 02:41:16;;;;;;;4.80;2.58;;;10.90;99.90;;;;;;5015200;28;20104;-80
2023/07/25 02:43:42;;;;;;;8.60;2.83;;;10.90;99.90;;;;;;5015071;28;20038;-79
2023/07/25 02:46:07;;;;;;;4.97;2.83;;;10.90;99.90;;;;;;5014141;28;20053;-80
2023/07/25 02:48:33;;;;;;;6.28;2.88;;;10.90;99.90;;;;;;5014538;28;20050;-78
2023/07/25 02:50:59;;;;;;;7.05;2.97;;;11.00;99.90;;;;;;5013534;28;20041;-78
2023/07/25 02:53:24;;;;;;;4.63;2.60;;;10.90;99.90;;;;;;5014727;28;20045;-77
2023/07/25 02:55:50;;;;;;;6.35;3.15;;;10.90;99.90;;;;;;5013312;28;20034;-79
2023/07/25 02:58:16;;;;;;;6.25;2.83;;;10.90;99.90;;;;;;5014227;28;20100;-79
2023/07/25 03:00:42;;;;;;;5.15;2.55;;;10.80;99.90;;;;;;4995919;28;20493;-79
2023/07/25 03:03:07;;;;;;;4.82;2.83;;;10.80;99.90;;;;;;5013098;28;20046;-79
2023/07/25 03:05:33;;;;;;;4.20;2.97;;;10.80;99.90;;;;;;5013255;28;20136;-78
2023/07/25 03:07:59;;;;;;;5.72;3.03;;;10.80;99.90;;;;;;5013799;28;20379;-78
2023/07/25 03:10:24;;;;;;;6.32;2.85;;;10.80;99.90;;;;;;5014416;28;20080;-79
2023/07/25 03:12:52;;;;;;;6.47;3.10;;;10.80;99.90;;;;;;5013341;28;20091;-77
2023/07/25 03:15:18;;;;;;;3.97;2.40;;;10.70;99.90;;;;;;4996634;28;20042;-76
2023/07/25 03:17:44;;;;;;;6.93;3.40;;;10.70;99.90;;;;;;5014210;28;20095;-77
2023/07/25 03:20:10;;;;;;;5.07;2.60;;;10.80;99.90;;;;;;5012995;28;20375;-78
2023/07/25 03:22:36;;;;;;;5.57;2.72;;;10.80;99.90;;;;;;5013630;28;20049;-77
2023/07/25 03:25:02;;;;;;;4.78;3.25;;;10.90;99.90;;;;;;5011746;28;20046;-78
2023/07/25 03:27:27;;;;;;;7.07;3.13;;;10.90;99.90;;;;;;4994311;28;20046;-78
2023/07/25 03:29:53;;;;;;;6.50;2.92;;;10.80;99.90;;;;;;5009917;28;20033;-79
2023/07/25 03:32:19;;;;;;;5.13;2.63;;;10.90;99.90;;;;;;4994347;28;20478;-79
2023/07/25 03:34:45;;;;;;;8.27;3.05;;;10.90;99.90;;;;;;5012141;28;20034;-78
2023/07/25 03:37:10;;;;;;;7.22;2.90;;;10.80;99.90;;;;;;5012433;28;20442;-78
2023/07/25 03:39:36;;;;;;;5.88;2.40;;;10.80;99.90;;;;;;5013482;28;20049;-78
2023/07/25 03:42:02;;;;;;;4.60;2.22;;;10.80;99.90;;;;;;5011742;28;20034;-78
2023/07/25 03:44:28;;;;;;;8.90;2.90;;;10.80;99.90;;;;;;5012821;28;20045;-78
2023/07/25 03:46:53;;;;;;;5.50;2.50;;;10.80;99.90;;;;;;5013501;28;20149;-78
2023/07/25 03:49:19;;;;;;;5.07;2.55;;;10.80;99.90;;;;;;5012346;28;20442;-78
2023/07/25 03:51:45;;;;;;;4.97;2.58;;;10.80;99.90;;;;;;5011795;28;20042;-79
2023/07/25 03:54:10;;;;;;;3.92;2.42;;;10.80;99.90;;;;;;5013460;28;20070;-79
2023/07/25 03:56:36;;;;;;;4.38;2.50;;;10.80;99.90;;;;;;5013568;28;20042;-79
2023/07/25 03:59:02;;;;;;;7.20;2.65;;;10.90;99.90;;;;;;5011467;28;20377;-79
2023/07/25 04:01:30;;;;;;;4.43;2.60;;;10.90;99.90;;;;;;5012780;28;20058;-79
2023/07/25 04:03:55;;;;;;;4.97;2.60;;;10.90;99.90;;;;;;5012955;28;20034;-78
2023/07/25 04:06:21;;;;;;;5.28;2.70;;;11.00;99.90;;;;;;5012123;28;20041;-78
2023/07/25 04:08:47;;;;;;;6.60;2.85;;;11.00;99.90;;;;;;4979803;28;20053;-78
2023/07/25 04:11:13;;;;;;;5.30;2.58;;;11.00;99.90;;;;;;5011797;28;20042;-79
2023/07/25 04:13:39;;;;;;;7.00;3.20;;;11.00;99.90;;;;;;5012839;28;20403;-77
2023/07/25 04:16:05;;;;;;;5.72;3.08;;;11.10;99.90;;;;;;5012372;28;20038;-77
2023/07/25 04:18:31;;;;;;;7.13;2.80;;;11.10;99.90;;;;;;5013190;28;20120;-77
2023/07/25 04:20:56;;;;;;;6.45;2.72;;;11.20;99.90;;;;;;5012728;28;20092;-77
2023/07/25 04:23:22;;;;;;;6.10;2.78;;;11.30;99.90;;;;;;5011758;28;20092;-79
2023/07/25 04:25:49;;;;;;;6.40;2.60;;;11.30;99.90;;;;;;5012446;28;20045;-79
2023/07/25 04:28:15;;;;;;;4.57;2.42;;;11.40;99.90;;;;;;5010995;28;20445;-79
2023/07/25 04:30:40;;;;;;;7.18;2.88;;;11.40;99.90;;;;;;5012605;28;20033;-78
2023/07/25 04:33:06;;;;;;;5.88;2.63;;;11.50;99.90;;;;;;5012023;28;20104;-78
2023/07/25 04:35:32;;;;;;;5.22;2.60;;;11.60;99.90;;;;;;4995064;28;20265;-78
2023/07/25 04:37:58;;;;;;;6.22;2.47;;;11.60;99.90;;;;;;4994407;28;20038;-78
2023/07/25 04:40:24;;;;;;;6.63;2.95;;;11.70;99.90;;;;;;5013023;28;20466;-78
2023/07/25 04:42:50;;;;;;;6.28;2.70;;;11.80;99.90;;;;;;5011175;28;20096;-78
2023/07/25 04:45:15;;;;;;;5.35;2.42;;;11.80;99.90;;;;;;5011402;28;20054;-76
2023/07/25 04:47:41;;;;;;;7.43;3.20;;;11.90;99.90;;;;;;5011959;28;20041;-77
2023/07/25 04:50:07;;;;;;;4.88;2.65;;;11.90;99.90;;;;;;5010925;28;20046;-77
2023/07/25 04:52:33;;;;;;;4.53;2.45;;;12.00;99.90;;;;;;5013069;28;20172;-78
2023/07/25 04:54:59;;;;;;;6.25;3.03;;;12.00;99.90;;;;;;5012641;28;20124;-79
2023/07/25 04:57:25;;;;;;;5.70;2.30;;;12.10;99.90;;;;;;5012775;28;20049;-78
2023/07/25 04:59:50;;;;;;;4.93;2.55;;;12.10;99.90;;;;;;5011428;28;20474;-79
2023/07/25 05:02:17;;;;;;;4.80;2.25;;;12.20;99.90;;;;;;5011702;28;20112;-78
2023/07/25 05:04:43;;;;;;;7.15;2.53;;;12.30;99.90;;;;;;5011644;28;20394;-79
2023/07/25 05:07:09;;;;;;;6.43;2.45;;;12.30;99.90;;;;;;4995520;28;20049;-79
2023/07/25 05:09:34;;;;;;;4.72;3.00;;;12.30;99.90;;;;;;5010865;28;20073;-79
2023/07/25 05:12:00;;;;;;;5.65;2.45;;;12.40;99.90;;;;;;5008601;28;20471;-79
2023/07/25 05:14:26;;;;;;;3.58;2.10;;;12.40;99.90;;;;;;4995018;28;20121;-79
2023/07/25 05:16:51;;;;;;;11.93;3.45;;;12.50;99.90;;;;;;5010890;28;20053;-79
2023/07/25 05:19:17;;;;;;;5.43;2.63;;;12.50;99.90;;;;;;5012195;28;20049;-78
2023/07/25 05:21:43;;;;;;;4.93;2.38;;;12.60;99.90;;;;;;5010937;28;20036;-78
2023/07/25 05:24:08;;;;;;;6.93;2.80;;;12.70;99.90;;;;;;5012109;28;20046;-78
2023/07/25 05:26:34;;;;;;;6.78;2.70;;;12.70;99.90;;;;;;5011189;28;20068;-79
2023/07/25 05:29:00;;;;;;;4.70;2.58;;;12.80;99.90;;;;;;5011561;28;20038;-79
2023/07/25 05:31:25;;;;;;;5.07;2.35;;;12.80;99.90;;;;;;5010668;28;20041;-78
2023/07/25 05:33:51;;;;;;;6.47;2.50;;;12.80;99.90;;;;;;5012071;28;20080;-79
2023/07/25 05:36:16;;;;;;;5.47;2.65;;;12.90;99.90;;;;;;5010631;28;20045;-78
2023/07/25 05:38:42;;;;;;;7.72;3.00;;;12.90;99.90;;;;;;5011387;28;20038;-78
2023/07/25 05:41:08;;;;;;;5.70;2.90;;;13.00;99.90;;;;;;5012103;28;20117;-79
2023/07/25 05:43:33;;;;;;;7.00;2.58;;;13.00;99.90;;;;;;5011853;28;20390;-78
2023/07/25 05:45:59;;;;;;;6.63;2.60;;;13.00;99.90;;;;;;5010851;28;20046;-78
2023/07/25 05:48:25;;;;;;;5.28;2.50;;;13.00;99.90;;;;;;5013928;28;20041;-78
2023/07/25 05:50:51;;;;;;;4.53;2.15;;;13.00;99.90;;;;;;5014431;28;20038;-78
2023/07/25 05:53:18;;;;;;;5.55;2.30;;;13.10;99.90;;;;;;5015827;28;20077;-79
2023/07/25 05:55:45;;;;;;;5.00;2.10;;;13.10;99.90;;;;;;5014332;28;20049;-78
2023/07/25 05:58:13;;;;;;;6.38;2.50;;;13.20;99.90;;;;;;5030087;28;20095;-78
2023/07/25 06:00:39;;;;;;;4.78;2.20;;;13.20;99.90;;;;;;5015360;28;20475;-78
2023/07/25 06:03:05;;;;;;;4.93;2.05;;;13.20;99.90;;;;;;5015373;28;20057;-78
2023/07/25 06:05:31;;;;;;;4.68;2.38;;;13.30;99.90;;;;;;5014298;28;20046;-78
2023/07/25 06:07:56;;;;;;;5.90;2.25;;;13.30;99.90;;;;;;5030886;28;20041;-78
2023/07/25 06:10:22;;;;;;;6.53;2.15;;;13.40;99.90;;;;;;5015617;28;20125;-78
2023/07/25 06:12:48;;;;;;;4.95;2.20;;;13.40;99.90;;;;;;5014133;28;20042;-71
2023/07/25 06:15:13;;;;;;;3.22;2.88;;;13.50;99.90;;;;;;5007151;28;20386;-70
2023/07/25 06:17:39;;;;;;;5.50;1.95;;;13.50;99.90;;;;;;5014934;28;20049;-70
2023/07/25 06:20:06;;;;;;;4.88;1.92;;;13.50;99.90;;;;;;5013815;28;20397;-70
2023/07/25 06:22:31;;;;;;;4.35;2.20;;;13.60;99.90;;;;;;5015094;28;20454;-70
2023/07/25 06:24:57;;;;;;;5.60;2.53;;;13.60;99.90;;;;;;5015068;28;20068;-70
2023/07/25 06:27:23;;;;;;;4.72;1.88;;;13.70;99.90;;;;;;5014713;28;20046;-70
2023/07/25 06:29:48;;;;;;;6.78;2.05;;;13.80;99.90;;;;;;5011056;28;20038;-73
2023/07/25 06:32:14;;;;;;;4.28;1.80;;;13.90;99.90;;;;;;5014489;28;20042;-70
2023/07/25 06:34:40;;;;;;;4.10;1.77;;;14.10;99.90;;;;;;5012965;28;20050;-70
2023/07/25 06:37:06;;;;;;;4.80;1.98;;;14.20;99.90;;;;;;5014723;28;20068;-70
2023/07/25 06:39:31;;;;;;;6.70;2.10;;;14.20;99.90;;;;;;5014491;28;20041;-70
2023/07/25 06:41:57;;;;;;;7.63;2.10;;;14.30;99.90;;;;;;5014783;28;20478;-70
2023/07/25 06:44:23;;;;;;;8.18;3.00;;;14.30;99.90;;;;;;5014454;28;20084;-70
2023/07/25 06:46:49;;;;;;;3.95;1.73;;;14.30;99.90;;;;;;5015105;28;20042;-69
2023/07/25 06:49:15;;;;;;;7.63;1.77;;;14.40;99.90;;;;;;5013697;28;20048;-69
2023/07/25 06:51:40;;;;;;;5.72;1.60;;;14.50;99.90;;;;;;5014754;28;20390;-70
2023/07/25 06:54:06;;;;;;;2.97;1.38;;;14.60;99.90;;;;;;5014440;28;20053;-70
2023/07/25 06:56:32;;;;;;;5.85;1.50;;;14.60;99.90;;;;;;5014805;28;20121;-70
2023/07/25 06:58:59;;;;;;;4.85;1.50;;;14.70;99.90;;;;;;5014056;28;20034;-69
2023/07/25 07:01:27;;;;;;;7.22;1.75;;;14.90;99.90;;;;;;5014260;28;20069;-69
2023/07/25 07:03:54;;;;;;;3.15;1.20;;;14.90;99.90;;;;;;5012492;28;20096;-68
2023/07/25 07:06:20;;;;;;;6.03;1.40;;;15.00;99.90;;;;;;5012961;28;20044;-70
2023/07/25 07:08:46;;;;;;;4.45;2.15;;;15.10;99.90;;;;;;5013765;28;20121;-70
2023/07/25 07:11:12;;;;;;;4.40;1.88;;;15.10;99.90;;;;;;5012449;28;20129;-68
2023/07/25 07:13:38;;;;;;;5.18;1.40;;;15.30;99.90;;;;;;5012641;28;20054;-69
2023/07/25 07:16:04;;;;;;;5.38;1.52;;;15.40;99.90;;;;;;5013761;28;20037;-70
2023/07/25 07:18:30;;;;;;;5.68;1.40;;;15.40;99.90;;;;;;5013561;28;20095;-69
2023/07/25 07:20:56;;;;;;;6.60;1.58;;;15.50;99.90;;;;;;5013487;28;20092;-69
2023/07/25 07:23:22;;;;;;;3.22;1.20;;;15.60;99.90;;;;;;5013421;28;20038;-70
2023/07/25 07:25:50;;;;;;;3.20;1.30;;;15.60;99.90;;;;;;5010991;28;20034;-69
2023/07/25 07:28:16;;;;;;;4.28;1.13;;;15.70;99.90;;;;;;5011800;28;20068;-70
2023/07/25 07:30:47;;;;;;;6.25;1.48;;;15.80;99.90;;;;;;5011170;28;20034;-68
2023/07/25 07:33:12;;;;;;;6.60;1.65;;;15.80;99.90;;;;;;5011624;28;20141;-69
2023/07/25 07:35:38;;;;;;;3.47;1.05;;;15.80;99.90;;;;;;5012107;28;20470;-69
2023/07/25 07:38:04;;;;;;;3.30;1.17;;;15.80;99.90;;;;;;5008003;28;20077;-68
2023/07/25 07:40:29;;;;;;;3.05;1.10;;;15.90;99.90;;;;;;5009223;28;20053;-68
2023/07/25 07:42:55;;;;;;;4.30;1.17;;;16.00;99.90;;;;;;5012305;28;20041;-68
2023/07/25 07:45:23;;;;;;;3.53;1.35;;;15.90;99.90;;;;;;5012365;28;20040;-69
2023/07/25 07:47:49;;;;;;;3.92;1.00;;;16.00;99.90;;;;;;5011979;28;20044;-68
2023/07/25 07:50:15;;;;;;;3.63;1.10;;;16.20;99.90;;;;;;5011916;28;20409;-68
2023/07/25 07:52:41;;;;;;;2.40;0.90;;;16.30;99.90;;;;;;5010829;28;20541;-69
2023/07/25 07:55:09;;;;;;;4.30;1.13;;;16.30;99.90;;;;;;5009952;28;20049;-70
2023/07/25 07:57:39;;;;;;;3.70;0.98;;;16.40;99.90;;;;;;5011419;28;20052;-69
2023/07/25 08:00:06;;;;;;;3.05;1.05;;;16.40;99.90;;;;;;5008321;28;20064;-69
2023/07/25 08:02:32;;;;;;;5.53;1.00;;;16.50;99.90;;;;;;5007579;28;20049;-68
2023/07/25 08:04:58;;;;;;;2.05;0.77;;;16.50;99.90;;;;;;5011044;28;20046;-69
2023/07/25 08:07:23;;;;;;;1.75;0.70;;;16.60;99.90;;;;;;5011854;28;20092;-68
2023/07/25 08:09:55;;;;;;;2.85;0.90;;;16.70;99.90;;;;;;5011743;28;20095;-69
2023/07/25 08:12:22;;;;;;;2.40;0.70;;;16.80;99.90;;;;;;5008986;28;20045;-68
2023/07/25 08:14:47;;;;;;;3.30;0.70;;;16.80;99.90;;;;;;5011858;28;20033;-69
2023/07/25 08:17:13;;;;;;;1.33;0.63;;;16.80;99.90;;;;;;5010288;28;20112;-68
2023/07/25 08:19:39;;;;;;;1.98;0.63;;;16.90;99.90;;;;;;5010434;28;20038;-70
2023/07/25 08:22:05;;;;;;;4.03;0.90;;;17.00;99.90;;;;;;5012054;28;20033;-70
2023/07/25 08:24:33;;;;;;;3.47;0.80;;;17.00;99.90;;;;;;5002924;28;20050;-69
2023/07/25 08:26:59;;;;;;;2.28;0.70;;;17.00;99.90;;;;;;5007176;28;20044;-69
2023/07/25 08:29:26;;;;;;;1.83;0.80;;;17.20;99.90;;;;;;5009266;28;20045;-71
2023/07/25 08:31:51;;;;;;;3.00;0.50;;;17.30;99.90;;;;;;5009298;28;20379;-68
2023/07/25 08:34:17;;;;;;;2.28;0.90;;;17.30;99.90;;;;;;5009599;28;20042;-69
2023/07/25 08:36:43;;;;;;;1.88;0.75;;;17.30;99.90;;;;;;5009865;28;20038;-69
2023/07/25 08:39:09;;;;;;;2.42;0.75;;;17.30;99.90;;;;;;5007233;28;20068;-69
2023/07/25 08:41:37;;;;;;;1.25;0.60;;;17.30;99.90;;;;;;5009236;28;20126;-69
2023/07/25 08:44:08;;;;;;;2.97;0.70;;;17.30;99.90;;;;;;5009475;28;20048;-69
2023/07/25 08:46:35;;;;;;;2.78;0.63;;;17.30;99.90;;;;;;5006871;28;20479;-69
2023/07/25 08:49:03;;;;;;;1.58;0.70;;;17.30;99.90;;;;;;5009767;28;20483;-69
2023/07/25 08:51:34;;;;;;;2.95;0.70;;;17.40;99.90;;;;;;5008895;28;20463;-69
2023/07/25 08:54:10;;;;;;;1.85;0.63;;;17.40;99.90;;;;;;5010801;28;20121;-69
2023/07/25 08:56:37;;;;;;;2.67;0.77;;;17.30;99.90;;;;;;5010702;28;20449;-69
2023/07/25 08:59:04;;;;;;;1.45;0.60;;;17.20;99.90;;;;;;5010045;28;20061;-67
2023/07/25 09:01:31;;;;;;;1.90;0.60;;;17.00;99.90;;;;;;5009942;28;20058;-69
2023/07/25 09:03:58;;;;;;;1.77;0.60;;;17.10;99.90;;;;;;5010931;28;20403;-70
2023/07/25 09:06:24;;;;;;;2.05;0.52;;;17.20;99.90;;;;;;5010648;28;20049;-69
2023/07/25 09:08:50;;;;;;;2.20;0.70;;;17.40;99.90;;;;;;5010635;28;20041;-74
2023/07/25 09:11:19;;;;;;;3.50;0.75;;;17.80;99.90;;;;;;5010927;28;20125;-70
2023/07/25 09:13:45;;;;;;;2.60;0.60;;;18.00;99.90;;;;;;5009882;28;20099;-68
2023/07/25 09:16:11;;;;;;;2.63;0.80;;;17.90;99.90;;;;;;5025917;28;20121;-70
2023/07/25 09:18:37;;;;;;;1.83;0.50;;;17.80;99.90;;;;;;5005027;28;20045;-69
2023/07/25 09:21:03;;;;;;;2.30;0.60;;;17.50;99.90;;;;;;4989853;28;20037;-71
2023/07/25 09:23:29;;;;;;;3.60;0.65;;;17.40;99.90;;;;;;5013361;28;20387;-69
2023/07/25 09:26:06;;;;;;;3.35;0.70;;;17.30;99.90;;;;;;5014564;28;20044;-69
2023/07/25 09:28:32;;;;;;;2.22;0.60;;;17.40;99.90;;;;;;5014667;28;20143;-69
2023/07/25 09:31:02;;;;;;;2.60;0.60;;;17.60;99.90;;;;;;5014449;28;20482;-68
2023/07/25 09:33:28;;;;;;;1.05;0.50;;;17.90;99.90;;;;;;5015128;28;20046;-69
2023/07/25 09:35:54;;;;;;;2.92;0.60;;;18.10;99.90;;;;;;5012440;28;20046;-69
2023/07/25 09:38:20;;;;;;;2.00;0.55;;;18.20;99.90;;;;;;5008717;28;20049;-72
2023/07/25 09:40:47;;;;;;;1.73;0.60;;;18.00;99.90;;;;;;5014763;28;20330;-69
2023/07/25 09:43:27;;;;;;;2.50;1.42;;;18.10;99.90;;;;;;5014907;28;20060;-69
2023/07/25 09:45:54;;;;;;;1.60;0.60;;;18.40;99.90;;;;;;5013977;28;20680;-69
2023/07/25 09:48:20;;;;;;;2.25;0.57;;;18.70;99.90;;;;;;5014819;28;20137;-68
2023/07/25 09:50:46;;;;;;;2.08;0.60;;;18.90;99.90;;;;;;5012601;28;20495;-69
2023/07/25 09:53:14;;;;;;;2.15;0.80;;;19.10;99.90;;;;;;5014513;28;20116;-70
2023/07/25 09:55:41;;;;;;;2.38;0.50;;;19.10;99.90;;;;;;5014597;28;20058;-70
2023/07/25 09:58:07;;;;;;;0.90;0.50;;;19.10;99.90;;;;;;5014475;28;20041;-69
2023/07/25 10:00:32;;;;;;;0.98;0.45;;;19.20;99.90;;;;;;5013416;28;20378;-70
2023/07/25 10:02:59;;;;;;;3.35;0.60;;;19.00;99.90;;;;;;5013997;28;20042;-68
2023/07/25 10:05:28;;;;;;;3.00;0.75;;;18.90;99.90;;;;;;5014378;28;20045;-69
2023/07/25 10:07:59;;;;;;;2.50;0.60;;;19.00;99.90;;;;;;5014007;28;20051;-70
2023/07/25 10:10:26;;;;;;;1.20;0.50;;;19.20;99.90;;;;;;5007127;28;20038;-70
2023/07/25 10:12:53;;;;;;;1.73;0.73;;;19.30;99.90;;;;;;5006781;28;20080;-70
2023/07/25 10:15:19;;;;;;;1.65;0.43;;;19.50;99.90;;;;;;5013466;28;20113;-70
2023/07/25 10:17:45;;;;;;;1.17;0.52;;;19.40;99.90;;;;;;5013353;28;20448;-71
2023/07/25 10:20:24;;;;;;;1.27;0.52;;;19.20;99.90;;;;;;5012656;28;20045;-70
2023/07/25 10:22:50;;;;;;;2.08;0.50;;;19.30;99.90;;;;;;5012681;28;20049;-69
2023/07/25 10:25:28;;;;;;;3.38;0.60;;;19.40;99.90;;;;;;5013995;28;20042;-70
2023/07/25 10:28:01;;;;;;;2.10;0.60;;;19.50;99.90;;;;;;5013564;28;20053;-71
2023/07/25 10:30:29;;;;;;;2.47;0.60;;;19.60;99.90;;;;;;5012826;28;20038;-70
2023/07/25 10:33:02;;;;;;;0.85;0.47;;;19.70;99.90;;;;;;5008765;28;20507;-69
2023/07/25 10:35:41;;;;;;;1.00;0.50;;;19.80;99.90;;;;;;5012603;28;20137;-69
2023/07/25 10:38:13;;;;;;;1.70;0.50;;;20.00;99.90;;;;;;5012722;28;20487;-71
2023/07/25 10:41:09;;;;;;;1.75;0.70;;;20.20;99.90;;;;;;5013141;28;20046;-70
2023/07/25 10:43:55;;;;;;;2.25;0.45;;;20.40;99.90;;;;;;5012493;28;20387;-70
2023/07/25 10:46:31;;;;;;;2.92;0.80;;;20.50;99.90;;;;;;5010217;28;20062;-70
2023/07/25 10:49:13;;;;;;;2.55;0.60;;;20.40;99.90;;;;;;5003511;28;20069;-68
2023/07/25 10:51:52;;;;;;;1.67;0.63;;;20.20;99.90;;;;;;5013401;28;20099;-70
2023/07/25 10:54:22;;;;;;;1.00;0.50;;;20.30;99.90;;;;;;5008211;28;20042;-69
2023/07/25 10:57:10;;;;;;;0.73;0.40;;;20.40;99.90;;;;;;5012968;28;20426;-69
2023/07/25 11:00:04;;;;;;;1.95;0.50;;;20.50;99.90;;;;;;5010931;28;20034;-67
2023/07/25 11:02:40;;;;;;;1.42;0.55;;;20.70;99.90;;;;;;5005822;28;20092;-68
2023/07/25 11:05:24;;;;;;;1.48;0.40;;;20.90;99.90;;;;;;5013158;28;20049;-71
2023/07/25 11:07:53;;;;;;;1.88;0.50;;;20.70;99.90;;;;;;5011750;28;20029;-71
2023/07/25 11:10:20;;;;;;;1.92;0.63;;;20.20;99.90;;;;;;5008268;28;20065;-68
2023/07/25 11:12:57;;;;;;;1.67;0.60;;;19.70;99.90;;;;;;5012271;28;20038;-69
2023/07/25 11:15:23;;;;;;;2.22;0.80;;;19.40;99.90;;;;;;5013620;28;20038;-68
2023/07/25 11:17:49;;;;;;;2.10;0.60;;;19.20;99.90;;;;;;4995013;28;20053;-68
2023/07/25 11:20:21;;;;;;;2.22;0.80;;;19.10;99.90;;;;;;5013377;28;20034;-68
2023/07/25 11:22:51;;;;;;;1.00;0.40;;;19.40;99.90;;;;;;5013868;28;20038;-69
2023/07/25 11:25:18;;;;;;;1.48;0.60;;;19.70;99.90;;;;;;5013793;28;20073;-69
2023/07/25 11:27:45;;;;;;;1.63;0.60;;;20.10;99.90;;;;;;5013394;28;20041;-69
2023/07/25 11:30:16;;;;;;;3.17;0.70;;;20.50;99.90;;;;;;5012986;28;20026;-68
2023/07/25 11:32:50;;;;;;;2.63;0.90;;;20.70;99.90;;;;;;5013260;28;20084;-69
2023/07/25 11:35:16;;;;;;;4.50;0.80;;;20.70;99.90;;;;;;5012288;28;20383;-69
2023/07/25 11:37:43;;;;;;;1.45;0.70;;;20.50;99.90;;;;;;5011215;28;20045;-69
2023/07/25 11:40:19;;;;;;;2.78;0.70;;;20.20;99.90;;;;;;5012066;28;20044;-68
2023/07/25 11:42:49;;;;;;;2.50;0.95;;;19.80;99.90;;;;;;5010887;28;20042;-68
2023/07/25 11:45:16;;;;;;;1.83;0.50;;;19.60;99.90;;;;;;5013392;28;20374;-68
2023/07/25 11:47:46;;;;;;;2.72;0.70;;;19.40;99.90;;;;;;5012505;28;20046;-68
2023/07/25 11:50:13;;;;;;;2.00;0.55;;;19.20;99.90;;;;;;5028316;28;20045;-68
2023/07/25 11:52:43;;;;;;;1.48;0.70;;;19.20;99.90;;;;;;5012288;28;20487;-67
2023/07/25 11:55:10;;;;;;;2.40;0.70;;;19.40;99.90;;;;;;5011907;28;20058;-69
2023/07/25 11:57:37;;;;;;;3.60;0.73;;;19.80;99.90;;;;;;5012351;28;20073;-69
2023/07/25 12:00:06;;;;;;;1.30;0.60;;;20.00;99.90;;;;;;5012131;28;20073;-69
2023/07/25 12:02:39;;;;;;;2.15;0.60;;;20.10;99.90;;;;;;5011650;28;20058;-69
2023/07/25 12:05:06;;;;;;;1.33;0.60;;;20.20;99.90;;;;;;5009145;28;20081;-69
2023/07/25 12:07:51;;;;;;;1.42;0.57;;;20.30;99.90;;;;;;5012518;28;20050;-68
2023/07/25 12:10:31;;;;;;;2.60;0.60;;;20.30;99.90;;;;;;5010331;28;20038;-69
2023/07/25 12:12:58;;;;;;;1.98;0.80;;;20.00;99.90;;;;;;5012386;28;20046;-68
2023/07/25 12:15:44;;;;;;;1.92;0.70;;;19.80;99.90;;;;;;5012767;28;20364;-68
2023/07/25 12:18:35;;;;;;;2.72;0.88;;;19.70;99.90;;;;;;5009577;28;20044;-70
2023/07/25 12:21:02;;;;;;;2.55;0.70;;;19.80;99.90;;;;;;5011545;28;20034;-70
2023/07/25 12:23:29;;;;;;;3.30;0.80;;;20.00;99.90;;;;;;5011466;28;20125;-70
2023/07/25 12:25:57;;;;;;;2.28;0.80;;;20.00;99.90;;;;;;5012502;28;20108;-68
2023/07/25 12:28:24;;;;;;;0.95;0.40;;;20.00;99.90;;;;;;5011525;28;20515;-69
2023/07/25 12:30:50;;;;;;;2.47;0.63;;;19.90;99.90;;;;;;5012510;28;20451;-69
2023/07/25 12:33:16;;;;;;;1.48;0.52;;;19.80;99.90;;;;;;5011520;28;20382;-68
2023/07/25 12:35:41;;;;;;;2.35;0.68;;;19.70;99.90;;;;;;5012713;28;20041;-70
2023/07/25 12:38:07;;;;;;;1.88;0.60;;;19.50;99.90;;;;;;5010725;28;20033;-68
2023/07/25 12:40:33;;;;;;;2.75;0.80;;;19.50;99.90;;;;;;5012800;28;20073;-68
2023/07/25 12:42:58;;;;;;;2.17;0.80;;;19.50;99.90;;;;;;5012477;28;20633;-68
2023/07/25 12:45:24;;;;;;;2.75;0.77;;;19.40;99.90;;;;;;5012130;28;20084;-69
2023/07/25 12:47:50;;;;;;;2.47;0.70;;;19.40;99.90;;;;;;5012432;28;20125;-69